AV - LB | Pilotos de la V.A




 METAR AND TAF INFORMATION
METAR FOR SOCA
ADDS - METARS form results

(0139 UTC 19 May 2021)
Data provider http://aviationweather.gov/metar/data/
 
METAR text: SOCA 190130Z AUTO 00000KT 9999 FEW002 24/24 Q1014
Conditions at: SOCA (CAYENNE/ROCHAMBE, GY) observed 0130 UTC 19 May 2021
Temperature: 24.0°C (75°F)
Dewpoint: 24.0°C (75°F) [RH = 100%]
Pressure (altimeter): 29.94 inches Hg (1014.0 mb)
Winds: calm
Visibility: 6 or more miles (10+ km)
Ceiling: at least 12,000 feet AGL
Clouds: few clouds at 200 feet AGL
Weather: no significant weather observed at this time

METAR text: SOCA 190100Z AUTO VRB02KT 9999 FEW002 25/24 Q1014
Conditions at: SOCA (CAYENNE/ROCHAMBE, GY) observed 0100 UTC 19 May 2021
Temperature: 25.0°C (77°F)
Dewpoint: 24.0°C (75°F) [RH = 94%]
Pressure (altimeter): 29.94 inches Hg (1014.0 mb)
Winds: variable direction winds at 2 MPH (2 knots; 1.0 m/s)
Visibility: 6 or more miles (10+ km)
Ceiling: at least 12,000 feet AGL
Clouds: few clouds at 200 feet AGL
Weather: no significant weather observed at this time

Forecast for: SOCA (CAYENNE/ROCHAMBE, GY)
Text: TAF SOCA 181600Z 1818/1918 08008KT 9999 SCT020 BKN030
Forecast period: 1800 UTC 18 May 2021 to 1800 UTC 19 May 2021
Forecast type: FROM: standard forecast or significant change
Winds: from the E (80 degrees) at 9 MPH (8 knots; 4.1 m/s)
Visibility: 6 or more miles (10+ km)
Ceiling: 3000 feet AGL
Clouds: scattered clouds at 2000 feet AGL
broken clouds at 3000 feet AGL
Weather: no significant weather forecast for this period
Text: PROB40
Forecast period: 1800 UTC 18 May 2021 to 1800 UTC 19 May 2021
Forecast type: TEMPORARY: The following changes expected for less than half the time period
Visibility: 1.86 miles (2.99 km)
Ceiling: 1000 feet AGL
Clouds: broken clouds at 1000 feet AGL
broken clouds at 1500 feet AGL
Weather: SHRA  (rain showers)
Text: TEMPO 1818/1918 3000 SHRA BKN010 BKN015TCU
Forecast period: 1800 UTC 18 May 2021 to 1800 UTC 19 May 2021
Forecast type: TEMPORARY: The following changes expected for less than half the time period
Visibility: 0.62 miles (1.00 km)
Ceiling: 500 feet AGL
Clouds: broken clouds at 500 feet AGL
broken clouds at 1200 feet AGL
Weather: TSRA  (rain associated with thunderstorm(s))

 AIRPORT MAP

 RUNWAY INFORMATION
Runway 08 Runway length 10486 ft Runway width 148 ft
Runway elevation 18 ft Runway displaced threshold 0 ft Runway heading 65
Runway 26 Runway length 10486 ft Runway width 148 ft
Runway elevation 25 ft Runway displaced threshold 0 ft Runway heading 245

 AIRPORT FREQUENCIES
Type APP Name APP Frequency 119.9 MHZ
Type ATIS Name ATIS Frequency 132.2 MHZ
Type TWR Name TWR Frequency 118.1 MHZ

 AIRPORT NEAR NAVIGATION AIDS
Type VOR-DME Name Cayenne Frequency 115950 KHZ
Type NDB Name Cayenne Frequency 327 KHZ